Time;durP1;ratioP1;P1;durP2;ratioP2;P2;SDS_P1;SDS_P2;PMS_P1;PMS_P2;Temp;Humidity;BMP_temperature;BMP_pressure;BME280_temperature;BME280_humidity;BME280_pressure;Samples;Min_cycle;Max_cycle;Signal;HPM_P1;HPM_P2
2022/04/14 00:00:07;;;;;;;12.73;8.13;;;14.00;99.90;;;;;;5073184;28;20264;-64
2022/04/14 00:02:33;;;;;;;14.55;7.60;;;14.10;99.90;;;;;;5073351;28;20259;-64
2022/04/14 00:04:58;;;;;;;10.52;7.00;;;14.10;99.90;;;;;;5073192;28;20630;-65
2022/04/14 00:07:24;;;;;;;10.60;7.47;;;14.10;99.90;;;;;;5073006;28;20170;-64
2022/04/14 00:09:50;;;;;;;11.57;7.10;;;14.10;99.90;;;;;;5071756;28;20248;-63
2022/04/14 00:12:16;;;;;;;10.27;8.02;;;14.10;99.90;;;;;;5073011;28;20169;-64
2022/04/14 00:14:42;;;;;;;12.48;7.68;;;14.10;99.90;;;;;;5071794;28;20223;-64
2022/04/14 00:17:08;;;;;;;14.90;7.88;;;14.10;99.90;;;;;;5073156;28;20174;-63
2022/04/14 00:19:34;;;;;;;11.48;8.05;;;14.00;99.90;;;;;;5073114;28;20564;-63
2022/04/14 00:22:00;;;;;;;13.00;8.05;;;14.00;99.90;;;;;;5073212;28;20170;-63
2022/04/14 00:24:26;;;;;;;11.02;8.27;;;13.90;99.90;;;;;;5058000;28;20224;-64
2022/04/14 00:26:51;;;;;;;12.00;7.82;;;13.90;99.90;;;;;;5067343;28;20630;-64
2022/04/14 00:29:18;;;;;;;13.50;7.90;;;13.90;99.90;;;;;;5072977;28;20198;-64
2022/04/14 00:31:43;;;;;;;12.80;8.70;;;13.90;99.90;;;;;;5072793;28;20174;-64
2022/04/14 00:34:09;;;;;;;12.27;8.95;;;13.90;99.90;;;;;;5072791;28;20177;-64
2022/04/14 00:36:35;;;;;;;10.88;8.25;;;13.90;99.90;;;;;;5073421;28;20529;-64
2022/04/14 00:39:01;;;;;;;10.85;7.78;;;13.90;99.90;;;;;;5073621;28;20271;-64
2022/04/14 00:41:29;;;;;;;11.30;7.82;;;13.90;99.90;;;;;;5076529;28;20618;-62
2022/04/14 00:43:56;;;;;;;11.90;8.70;;;13.90;99.90;;;;;;5076361;28;20224;-64
2022/04/14 00:46:22;;;;;;;14.25;8.60;;;13.80;99.90;;;;;;5075026;28;20169;-64
2022/04/14 00:48:49;;;;;;;11.55;8.15;;;13.80;99.90;;;;;;5076286;28;20177;-64
2022/04/14 00:51:15;;;;;;;12.15;8.27;;;13.80;99.90;;;;;;5076965;28;20552;-64
2022/04/14 00:53:41;;;;;;;13.25;9.07;;;13.70;99.90;;;;;;5067260;28;20174;-64
2022/04/14 00:56:07;;;;;;;13.38;9.30;;;13.70;99.90;;;;;;5064481;28;20178;-64
2022/04/14 00:58:36;;;;;;;12.32;8.70;;;13.70;99.90;;;;;;5074481;28;20193;-63
2022/04/14 01:01:05;;;;;;;11.43;9.05;;;13.70;99.90;;;;;;5075839;28;20260;-64
2022/04/14 01:03:32;;;;;;;13.65;9.23;;;13.60;99.90;;;;;;5075884;28;20347;-64
2022/04/14 01:05:59;;;;;;;13.35;8.90;;;13.60;99.90;;;;;;5076091;28;20215;-64
2022/04/14 01:08:27;;;;;;;15.80;9.63;;;13.60;99.90;;;;;;5075787;28;20601;-64
2022/04/14 01:10:55;;;;;;;14.80;10.00;;;13.60;99.90;;;;;;5075491;28;20220;-63
2022/04/14 01:13:21;;;;;;;12.32;8.77;;;13.60;99.90;;;;;;5075470;28;20170;-64
2022/04/14 01:15:48;;;;;;;14.00;9.80;;;13.60;99.90;;;;;;5075735;28;20184;-64
2022/04/14 01:18:14;;;;;;;14.00;9.80;;;13.70;99.90;;;;;;5075559;28;20198;-63
2022/04/14 01:20:42;;;;;;;13.23;9.90;;;13.60;99.90;;;;;;5075535;28;20197;-63
2022/04/14 01:23:09;;;;;;;17.30;9.25;;;13.60;99.90;;;;;;5071582;28;20183;-63
2022/04/14 01:25:35;;;;;;;15.63;9.35;;;13.60;99.90;;;;;;5059577;28;20170;-63
2022/04/14 01:28:05;;;;;;;17.02;10.25;;;13.60;99.90;;;;;;5075192;28;20181;-64
2022/04/14 01:30:31;;;;;;;17.63;10.18;;;13.60;99.90;;;;;;5075448;28;20274;-63
2022/04/14 01:32:57;;;;;;;15.27;9.60;;;13.50;99.90;;;;;;5075647;28;20638;-64
2022/04/14 01:35:23;;;;;;;14.02;10.07;;;13.50;99.90;;;;;;5074076;28;20627;-64
2022/04/14 01:37:50;;;;;;;17.30;10.18;;;13.50;99.90;;;;;;5075131;28;20196;-64
2022/04/14 01:40:16;;;;;;;21.30;11.40;;;13.40;99.90;;;;;;5075173;28;20264;-64
2022/04/14 01:42:42;;;;;;;16.08;10.75;;;13.40;99.90;;;;;;5075015;28;20180;-63
2022/04/14 01:45:10;;;;;;;15.20;10.68;;;13.30;99.90;;;;;;5075364;28;20542;-64
2022/04/14 01:47:43;;;;;;;18.42;10.73;;;13.30;99.90;;;;;;5075387;28;20654;-63
2022/04/14 01:50:12;;;;;;;14.73;10.90;;;13.30;99.90;;;;;;5075369;28;20625;-63
2022/04/14 01:52:39;;;;;;;16.98;11.38;;;13.30;99.90;;;;;;5074938;28;20174;-64
2022/04/14 01:55:06;;;;;;;16.92;11.85;;;13.40;99.90;;;;;;5054978;28;20550;-63
2022/04/14 01:57:32;;;;;;;18.02;11.75;;;13.40;99.90;;;;;;5074747;28;20205;-63
2022/04/14 02:00:04;;;;;;;21.52;11.50;;;13.40;99.90;;;;;;5075015;28;20542;-64
2022/04/14 02:02:30;;;;;;;19.13;12.20;;;13.40;99.90;;;;;;5074785;28;20646;-63
2022/04/14 02:04:55;;;;;;;21.75;12.30;;;13.30;99.90;;;;;;5074807;28;20173;-63
2022/04/14 02:07:21;;;;;;;17.02;12.20;;;13.30;99.90;;;;;;5073401;28;20257;-63
2022/04/14 02:09:47;;;;;;;19.33;12.40;;;13.40;99.90;;;;;;5074418;28;20567;-63
2022/04/14 02:12:12;;;;;;;16.70;11.63;;;13.30;99.90;;;;;;5074579;28;20165;-63
2022/04/14 02:14:39;;;;;;;15.82;11.98;;;13.20;99.90;;;;;;5074477;28;20215;-64
2022/04/14 02:17:05;;;;;;;21.50;13.40;;;13.10;99.90;;;;;;5074748;28;20170;-64
2022/04/14 02:19:30;;;;;;;17.35;12.45;;;12.90;99.90;;;;;;5074728;28;20228;-63
2022/04/14 02:21:59;;;;;;;17.55;12.07;;;12.90;99.90;;;;;;5074416;28;20174;-64
2022/04/14 02:24:25;;;;;;;19.50;12.18;;;13.00;99.90;;;;;;5059528;28;20202;-63
2022/04/14 02:26:52;;;;;;;17.42;12.60;;;13.00;99.90;;;;;;5068914;28;20181;-63
2022/04/14 02:29:18;;;;;;;18.73;12.35;;;13.00;99.90;;;;;;5074120;28;20296;-63
2022/04/14 02:31:43;;;;;;;17.88;12.52;;;13.00;99.90;;;;;;5072814;28;20260;-64
2022/04/14 02:34:09;;;;;;;20.48;12.05;;;13.00;99.90;;;;;;5074094;28;20201;-63
2022/04/14 02:36:35;;;;;;;18.38;11.23;;;13.00;99.90;;;;;;5074119;28;20287;-64
2022/04/14 02:39:00;;;;;;;17.85;11.60;;;13.00;99.90;;;;;;5073871;28;20255;-62
2022/04/14 02:41:26;;;;;;;17.58;11.48;;;12.90;99.90;;;;;;5074444;28;20212;-64
2022/04/14 02:43:52;;;;;;;24.67;13.77;;;12.90;99.90;;;;;;5072573;28;20181;-63
2022/04/14 02:46:17;;;;;;;17.70;11.93;;;12.80;99.90;;;;;;5072565;28;20182;-63
2022/04/14 02:48:43;;;;;;;18.05;12.45;;;12.70;99.90;;;;;;5073906;28;20257;-63
2022/04/14 02:51:09;;;;;;;19.83;12.35;;;12.70;99.90;;;;;;5073749;28;20686;-64
2022/04/14 02:53:34;;;;;;;22.08;13.77;;;12.70;99.90;;;;;;5066135;28;20252;-63
2022/04/14 02:56:00;;;;;;;19.67;13.50;;;12.60;99.90;;;;;;5061481;28;20209;-63
2022/04/14 02:58:26;;;;;;;18.15;12.90;;;12.60;99.90;;;;;;5073495;28;20203;-63
2022/04/14 03:00:52;;;;;;;19.00;12.68;;;12.50;99.90;;;;;;5073608;28;20185;-63
2022/04/14 03:03:19;;;;;;;20.40;13.32;;;12.50;99.90;;;;;;5073727;28;20239;-63
2022/04/14 03:05:45;;;;;;;20.00;13.20;;;12.50;99.90;;;;;;5073881;28;20220;-64
2022/04/14 03:08:11;;;;;;;19.23;13.10;;;12.50;99.90;;;;;;5073760;28;20178;-64
2022/04/14 03:10:37;;;;;;;18.67;12.82;;;12.60;99.90;;;;;;5073686;28;20578;-63
2022/04/14 03:13:02;;;;;;;19.35;13.15;;;12.60;99.90;;;;;;5072270;28;20272;-64
2022/04/14 03:15:28;;;;;;;19.05;12.30;;;12.70;99.90;;;;;;5073740;28;20177;-64
2022/04/14 03:17:54;;;;;;;18.52;12.73;;;12.70;99.90;;;;;;5073544;28;20220;-63
2022/04/14 03:20:20;;;;;;;15.52;11.43;;;12.70;99.90;;;;;;5072340;28;20224;-64
2022/04/14 03:22:45;;;;;;;20.33;12.50;;;12.60;99.90;;;;;;5071593;28;20173;-63
2022/04/14 03:25:13;;;;;;;20.48;13.90;;;12.70;99.90;;;;;;5054980;28;20231;-63
2022/04/14 03:27:39;;;;;;;19.80;13.68;;;12.70;99.90;;;;;;5073609;28;20531;-62
2022/04/14 03:30:07;;;;;;;17.92;12.40;;;12.70;99.90;;;;;;5073675;28;20194;-64
2022/04/14 03:32:39;;;;;;;21.33;13.43;;;12.70;99.90;;;;;;5073817;28;20580;-63
2022/04/14 03:35:05;;;;;;;19.23;13.13;;;12.70;99.90;;;;;;5073559;28;20162;-63
2022/04/14 03:37:30;;;;;;;20.75;14.18;;;12.70;99.90;;;;;;5073895;28;20173;-63
2022/04/14 03:39:56;;;;;;;18.85;12.25;;;12.80;99.90;;;;;;5073249;28;20222;-63
2022/04/14 03:42:22;;;;;;;17.77;12.48;;;12.80;99.90;;;;;;5073164;28;20216;-63
2022/04/14 03:44:47;;;;;;;20.15;13.80;;;12.70;99.90;;;;;;5073878;28;20530;-63
2022/04/14 03:47:13;;;;;;;19.45;13.45;;;12.60;99.90;;;;;;5073398;28;20180;-63
2022/04/14 03:49:39;;;;;;;21.83;13.93;;;12.50;99.90;;;;;;5073532;28;20586;-64
2022/04/14 03:52:05;;;;;;;22.13;14.80;;;12.50;99.90;;;;;;5073542;28;20178;-63
2022/04/14 03:54:30;;;;;;;23.30;14.85;;;12.50;99.90;;;;;;5057760;28;20182;-63
2022/04/14 03:56:56;;;;;;;24.13;16.48;;;12.40;99.90;;;;;;5068809;28;20185;-63
2022/04/14 03:59:22;;;;;;;25.98;16.67;;;12.30;99.90;;;;;;5073634;28;20213;-63
2022/04/14 04:01:47;;;;;;;25.35;15.45;;;12.20;99.90;;;;;;5075570;28;20193;-66
2022/04/14 04:04:13;;;;;;;23.95;16.10;;;12.30;99.90;;;;;;5073163;28;20250;-64
2022/04/14 04:06:39;;;;;;;22.67;15.37;;;12.30;99.90;;;;;;5074562;28;20177;-64
2022/04/14 04:09:05;;;;;;;22.92;14.60;;;12.30;99.90;;;;;;5073544;28;20622;-63
2022/04/14 04:11:30;;;;;;;28.02;15.88;;;12.30;99.90;;;;;;5073477;28;20268;-64
2022/04/14 04:13:56;;;;;;;22.50;15.88;;;12.30;99.90;;;;;;5075371;28;20184;-63
2022/04/14 04:16:22;;;;;;;23.75;15.15;;;12.30;99.90;;;;;;5076945;28;20166;-64
2022/04/14 04:18:48;;;;;;;23.67;15.82;;;12.30;99.90;;;;;;5076990;28;20193;-63
2022/04/14 04:21:13;;;;;;;27.33;15.85;;;12.30;99.90;;;;;;5076874;28;20659;-63
2022/04/14 04:23:39;;;;;;;20.75;14.43;;;12.20;99.90;;;;;;5068534;28;20249;-63
2022/04/14 04:26:05;;;;;;;23.05;15.23;;;12.20;99.90;;;;;;5063743;28;20193;-63
2022/04/14 04:28:30;;;;;;;31.67;18.83;;;12.20;99.90;;;;;;5076426;28;20181;-63
2022/04/14 04:30:57;;;;;;;26.70;16.05;;;12.20;99.90;;;;;;5076600;28;20217;-63
2022/04/14 04:33:23;;;;;;;22.05;15.75;;;12.30;99.90;;;;;;5077124;28;20530;-63
2022/04/14 04:35:52;;;;;;;20.63;15.45;;;12.30;99.90;;;;;;5076650;28;20169;-63
2022/04/14 04:38:19;;;;;;;23.42;15.75;;;12.30;99.90;;;;;;5076721;28;20200;-63
2022/04/14 04:40:44;;;;;;;24.83;15.45;;;12.30;99.90;;;;;;5076734;28;20193;-63
2022/04/14 04:43:10;;;;;;;20.05;14.45;;;12.30;99.90;;;;;;5074914;28;20544;-63
2022/04/14 04:45:36;;;;;;;23.75;16.00;;;12.30;99.90;;;;;;5076495;28;20170;-63
2022/04/14 04:48:04;;;;;;;22.27;15.35;;;12.30;99.90;;;;;;5076429;28;20666;-64
2022/04/14 04:50:30;;;;;;;23.20;14.75;;;12.30;99.90;;;;;;5076350;28;20677;-63
2022/04/14 04:52:56;;;;;;;24.95;15.30;;;12.30;99.90;;;;;;5073902;28;20182;-63
2022/04/14 04:55:21;;;;;;;21.05;13.82;;;12.30;99.90;;;;;;5058721;28;20174;-63
2022/04/14 04:57:47;;;;;;;24.65;15.65;;;12.20;99.90;;;;;;5076215;28;20197;-63
2022/04/14 05:00:13;;;;;;;23.48;14.50;;;12.20;99.90;;;;;;5076070;28;20193;-63
2022/04/14 05:02:39;;;;;;;21.52;15.40;;;12.10;99.90;;;;;;5076078;28;20201;-63
2022/04/14 05:05:05;;;;;;;23.15;14.27;;;12.00;99.90;;;;;;5074766;28;20213;-64
2022/04/14 05:07:31;;;;;;;21.20;14.97;;;11.90;99.90;;;;;;5076005;28;20249;-64
2022/04/14 05:09:56;;;;;;;22.50;15.20;;;11.90;99.90;;;;;;5075971;28;20277;-64
2022/04/14 05:12:22;;;;;;;24.67;15.23;;;11.80;99.90;;;;;;5076008;28;20155;-64
2022/04/14 05:14:49;;;;;;;22.48;14.27;;;11.90;99.90;;;;;;5075768;28;20235;-64
2022/04/14 05:17:14;;;;;;;25.27;15.27;;;11.90;99.90;;;;;;5075956;28;20253;-64
2022/04/14 05:19:40;;;;;;;22.90;15.82;;;11.90;99.90;;;;;;5075720;28;20288;-63
2022/04/14 05:22:06;;;;;;;26.03;16.83;;;11.90;99.90;;;;;;5074413;28;20174;-64
2022/04/14 05:24:32;;;;;;;21.80;15.53;;;11.90;99.90;;;;;;5059093;28;20185;-63
2022/04/14 05:26:58;;;;;;;24.60;15.20;;;11.80;99.90;;;;;;5071334;28;20642;-64
2022/04/14 05:29:24;;;;;;;22.53;14.60;;;11.80;99.90;;;;;;5075366;28;20569;-63
2022/04/14 05:31:50;;;;;;;24.57;15.77;;;11.80;99.90;;;;;;5074303;28;20178;-63
2022/04/14 05:34:15;;;;;;;24.27;15.50;;;11.80;99.90;;;;;;5075597;28;20185;-63
2022/04/14 05:36:41;;;;;;;20.50;14.20;;;11.80;99.90;;;;;;5075679;28;20257;-63
2022/04/14 05:39:07;;;;;;;25.60;15.30;;;11.80;99.90;;;;;;5075230;28;20304;-63
2022/04/14 05:41:32;;;;;;;22.17;14.63;;;11.90;99.90;;;;;;5074287;28;20174;-64
2022/04/14 05:43:59;;;;;;;20.73;14.30;;;11.90;99.90;;;;;;5075060;28;20605;-63
2022/04/14 05:46:25;;;;;;;23.53;14.87;;;11.90;99.90;;;;;;5075771;28;20549;-64
2022/04/14 05:48:51;;;;;;;21.47;14.07;;;11.90;99.90;;;;;;5076024;28;20158;-63
2022/04/14 05:51:18;;;;;;;23.43;13.83;;;11.90;99.90;;;;;;5075807;28;20162;-63
2022/04/14 05:53:44;;;;;;;19.27;13.10;;;11.90;99.90;;;;;;5064852;28;20265;-63
2022/04/14 05:56:10;;;;;;;20.07;13.30;;;12.00;99.90;;;;;;5064307;28;20212;-64
2022/04/14 05:58:35;;;;;;;22.17;13.40;;;12.00;99.90;;;;;;5074952;28;20189;-63
2022/04/14 06:01:01;;;;;;;19.80;13.55;;;12.00;99.90;;;;;;5075137;28;20682;-64
2022/04/14 06:03:27;;;;;;;25.93;14.07;;;12.00;99.90;;;;;;5073518;28;20519;-63
2022/04/14 06:05:53;;;;;;;22.27;13.83;;;12.10;99.90;;;;;;5074842;28;20174;-63
2022/04/14 06:08:19;;;;;;;22.30;13.70;;;12.10;99.90;;;;;;5073912;28;20201;-63
2022/04/14 06:10:45;;;;;;;19.88;14.05;;;12.30;99.90;;;;;;5074592;28;20209;-63
2022/04/14 06:13:13;;;;;;;21.13;13.38;;;12.30;99.90;;;;;;5074378;28;20196;-63
2022/04/14 06:15:39;;;;;;;23.10;13.67;;;12.20;99.90;;;;;;5074777;28;20646;-63
2022/04/14 06:18:05;;;;;;;19.38;13.95;;;12.20;99.90;;;;;;5075095;28;20255;-63
2022/04/14 06:20:30;;;;;;;23.40;14.57;;;12.30;99.90;;;;;;5074437;28;20193;-63
2022/04/14 06:22:58;;;;;;;22.80;14.55;;;12.30;99.90;;;;;;5071798;28;20170;-63
2022/04/14 06:25:25;;;;;;;21.98;14.13;;;12.30;99.90;;;;;;5057567;28;20274;-63
2022/04/14 06:27:52;;;;;;;24.25;14.60;;;12.40;99.90;;;;;;5074224;28;20174;-63
2022/04/14 06:30:19;;;;;;;23.98;15.82;;;12.30;99.90;;;;;;5074994;28;20201;-63
2022/04/14 06:33:02;;;;;;;27.48;15.43;;;12.40;99.90;;;;;;5074374;28;20166;-62
2022/04/14 06:35:28;;;;;;;23.48;14.75;;;12.40;99.90;;;;;;5072948;28;20180;-62
2022/04/14 06:37:55;;;;;;;22.42;14.88;;;12.50;99.90;;;;;;5074010;28;20280;-63
2022/04/14 06:40:21;;;;;;;27.83;16.58;;;12.50;99.90;;;;;;5074185;28;20561;-62
2022/04/14 06:42:47;;;;;;;24.48;15.02;;;12.50;99.90;;;;;;5073993;28;20162;-62
2022/04/14 06:45:13;;;;;;;25.92;16.17;;;12.60;99.90;;;;;;5073943;28;20170;-62
2022/04/14 06:47:39;;;;;;;24.25;16.20;;;12.70;99.90;;;;;;5074217;28;20658;-63
2022/04/14 06:50:06;;;;;;;26.83;17.05;;;12.60;99.90;;;;;;5072732;28;20205;-62
2022/04/14 06:52:32;;;;;;;29.70;17.70;;;12.60;99.90;;;;;;5073812;28;20166;-63
2022/04/14 06:54:59;;;;;;;30.77;16.83;;;12.60;99.90;;;;;;5054594;28;20185;-63
2022/04/14 06:57:25;;;;;;;31.38;17.45;;;12.70;99.90;;;;;;5072969;28;20265;-63
2022/04/14 06:59:50;;;;;;;32.22;19.52;;;12.70;99.90;;;;;;5073650;28;20319;-63
2022/04/14 07:02:16;;;;;;;28.15;17.92;;;12.70;99.90;;;;;;5072470;28;20648;-62
2022/04/14 07:04:42;;;;;;;29.70;18.15;;;12.70;99.90;;;;;;5073994;28;20679;-62
2022/04/14 07:07:07;;;;;;;29.67;17.95;;;12.70;99.90;;;;;;5073831;28;20615;-62
2022/04/14 07:09:34;;;;;;;28.55;17.20;;;12.70;99.90;;;;;;5073929;28;20194;-64
2022/04/14 07:12:03;;;;;;;33.10;19.97;;;12.80;99.90;;;;;;5073856;28;20181;-63
2022/04/14 07:14:30;;;;;;;34.67;19.90;;;12.90;99.90;;;;;;5073418;28;20661;-63
2022/04/14 07:16:57;;;;;;;32.05;19.10;;;13.10;99.90;;;;;;5073869;28;20158;-63
2022/04/14 07:19:23;;;;;;;29.75;18.50;;;13.10;99.90;;;;;;5073313;28;20686;-63
2022/04/14 07:21:49;;;;;;;36.85;21.02;;;13.10;99.90;;;;;;5073801;28;20162;-62
2022/04/14 07:24:15;;;;;;;34.38;20.58;;;13.20;99.90;;;;;;5059893;28;20248;-62
2022/04/14 07:26:40;;;;;;;30.50;19.98;;;13.30;99.90;;;;;;5066676;28;20185;-63
2022/04/14 07:29:06;;;;;;;34.88;21.20;;;13.50;99.90;;;;;;5073363;28;20177;-63
2022/04/14 07:31:32;;;;;;;38.72;22.83;;;13.70;99.90;;;;;;5073506;28;20207;-63
2022/04/14 07:34:01;;;;;;;39.88;22.95;;;13.80;99.90;;;;;;5073690;28;20173;-62
2022/04/14 07:36:26;;;;;;;38.22;22.95;;;13.70;99.90;;;;;;5073247;28;20235;-62
2022/04/14 07:38:52;;;;;;;42.92;24.77;;;13.80;99.90;;;;;;5073540;28;20197;-62
2022/04/14 07:41:18;;;;;;;47.97;25.98;;;14.00;99.90;;;;;;5073642;28;20161;-62
2022/04/14 07:43:44;;;;;;;49.00;27.90;;;14.10;99.90;;;;;;5073002;28;20177;-63
2022/04/14 07:46:10;;;;;;;46.30;27.75;;;14.30;99.90;;;;;;5073527;28;20625;-62
2022/04/14 07:48:36;;;;;;;43.67;25.55;;;14.50;99.90;;;;;;5075016;28;20205;-62
2022/04/14 07:51:02;;;;;;;48.70;26.58;;;14.60;99.90;;;;;;5077320;28;20633;-63
2022/04/14 07:53:28;;;;;;;47.95;27.77;;;14.70;99.90;;;;;;5070502;28;20228;-63
2022/04/14 07:55:54;;;;;;;51.85;27.20;;;14.70;99.90;;;;;;5064124;28;20662;-63
2022/04/14 07:58:20;;;;;;;50.72;29.40;;;14.80;99.90;;;;;;5076885;28;20189;-63
2022/04/14 08:00:46;;;;;;;60.05;32.00;;;15.00;99.90;;;;;;5075829;28;20193;-63
2022/04/14 08:03:13;;;;;;;63.45;33.72;;;15.00;99.90;;;;;;5077627;28;20642;-63
2022/04/14 08:05:44;;;;;;;63.80;33.53;;;14.90;99.90;;;;;;5077332;28;20241;-62
2022/04/14 08:08:12;;;;;;;64.68;35.13;;;14.90;99.90;;;;;;5077038;28;20634;-62
2022/04/14 08:10:39;;;;;;;64.18;34.50;;;15.10;99.90;;;;;;5076710;28;20217;-63
2022/04/14 08:13:05;;;;;;;64.05;34.92;;;15.10;99.90;;;;;;5076630;28;20260;-62
2022/04/14 08:15:31;;;;;;;68.70;34.80;;;15.30;99.90;;;;;;5076904;28;20202;-63
2022/04/14 08:17:57;;;;;;;66.13;34.80;;;15.30;99.90;;;;;;5077099;28;20196;-62
2022/04/14 08:20:24;;;;;;;67.00;35.25;;;15.30;99.90;;;;;;5076964;28;20283;-62
2022/04/14 08:22:51;;;;;;;66.57;33.83;;;15.30;99.90;;;;;;5073758;28;20631;-62
2022/04/14 08:25:20;;;;;;;70.10;34.67;;;15.10;99.90;;;;;;5058629;28;20170;-62
2022/04/14 08:27:47;;;;;;;64.25;34.97;;;15.00;99.90;;;;;;5076827;28;20162;-62
2022/04/14 08:30:14;;;;;;;70.70;36.83;;;15.10;99.90;;;;;;5077076;28;20619;-63
2022/04/14 08:32:40;;;;;;;67.70;34.95;;;15.00;99.90;;;;;;5076209;28;20173;-63
2022/04/14 08:35:06;;;;;;;67.55;35.80;;;14.90;99.90;;;;;;5077150;28;20166;-63
2022/04/14 08:37:33;;;;;;;75.78;36.70;;;14.80;99.90;;;;;;5076632;28;20205;-63
2022/04/14 08:39:59;;;;;;;66.78;34.97;;;14.60;99.90;;;;;;5077177;28;20666;-66
2022/04/14 08:42:30;;;;;;;63.55;33.70;;;14.80;99.90;;;;;;5076564;28;20724;-63
2022/04/14 08:45:02;;;;;;;67.32;36.53;;;15.00;99.90;;;;;;5076380;28;20263;-63
2022/04/14 08:47:29;;;;;;;60.40;33.55;;;15.00;99.90;;;;;;5076586;28;20748;-63
2022/04/14 08:49:57;;;;;;;68.40;35.03;;;15.00;99.90;;;;;;5074881;28;20237;-64
2022/04/14 08:52:24;;;;;;;61.47;34.40;;;15.30;99.90;;;;;;5077083;28;20603;-63
2022/04/14 08:54:50;;;;;;;64.18;33.67;;;15.60;99.90;;;;;;5058347;28;20542;-63
2022/04/14 08:57:17;;;;;;;62.08;33.80;;;16.00;99.90;;;;;;5074192;28;20186;-62
2022/04/14 08:59:44;;;;;;;64.35;33.28;;;16.70;99.90;;;;;;5074452;28;20289;-62
2022/04/14 09:02:15;;;;;;;62.35;33.70;;;16.70;99.90;;;;;;5076068;28;20239;-62
2022/04/14 09:04:44;;;;;;;60.70;33.85;;;16.90;99.90;;;;;;5076327;28;20174;-62
2022/04/14 09:07:10;;;;;;;56.05;33.08;;;17.60;99.90;;;;;;5076546;28;20193;-62
2022/04/14 09:09:36;;;;;;;57.42;32.63;;;18.00;99.90;;;;;;5074697;28;20202;-62
2022/04/14 09:12:02;;;;;;;55.70;32.22;;;18.50;99.90;;;;;;5075902;28;20186;-62
2022/04/14 09:14:31;;;;;;;57.72;31.98;;;18.50;99.90;;;;;;5075983;28;20269;-62
2022/04/14 09:16:57;;;;;;;46.80;29.75;;;17.90;99.90;;;;;;5076076;28;20664;-63
2022/04/14 09:19:25;;;;;;;51.25;30.52;;;18.00;99.90;;;;;;5076674;28;20233;-62
2022/04/14 09:22:02;;;;;;;45.70;27.27;;;18.40;99.90;;;;;;5076460;28;20164;-62
2022/04/14 09:24:43;;;;;;;50.10;29.30;;;19.00;99.90;;;;;;5060600;28;20205;-62
2022/04/14 09:27:21;;;;;;;48.78;27.70;;;19.20;99.90;;;;;;5072727;28;20188;-62
2022/04/14 09:29:48;;;;;;;43.85;25.05;;;19.00;99.90;;;;;;5075417;28;20194;-62
2022/04/14 09:32:30;;;;;;;42.85;26.40;;;19.20;99.90;;;;;;5075662;28;20174;-62
2022/04/14 09:34:57;;;;;;;42.90;26.20;;;18.90;99.90;;;;;;5074415;28;20170;-62
2022/04/14 09:37:24;;;;;;;38.03;23.08;;;18.60;99.90;;;;;;5075995;28;20740;-62
2022/04/14 09:40:10;;;;;;;35.45;23.80;;;18.50;99.90;;;;;;5075868;28;20693;-62
2022/04/14 09:42:40;;;;;;;37.90;23.88;;;18.50;99.90;;;;;;5075330;28;20154;-62
2022/04/14 09:45:23;;;;;;;44.00;25.92;;;18.80;99.90;;;;;;5073756;28;20642;-62
2022/04/14 09:48:01;;;;;;;42.88;25.40;;;19.00;99.90;;;;;;5075561;28;20611;-62
2022/04/14 09:50:29;;;;;;;37.15;23.25;;;18.90;99.90;;;;;;5075616;28;20190;-63
2022/04/14 09:53:19;;;;;;;47.28;27.63;;;18.80;99.90;;;;;;5072677;28;20164;-64
2022/04/14 09:55:50;;;;;;;42.35;23.23;;;19.10;99.90;;;;;;5059408;28;20725;-63
2022/04/14 09:58:21;;;;;;;34.67;22.30;;;19.00;99.90;;;;;;5075028;28;20221;-63
2022/04/14 10:00:51;;;;;;;28.38;17.73;;;18.90;99.90;;;;;;5074964;28;20216;-63
2022/04/14 10:03:24;;;;;;;24.33;15.27;;;18.50;99.90;;;;;;5075543;28;20208;-64
2022/04/14 10:05:55;;;;;;;25.95;16.52;;;18.30;99.90;;;;;;5075254;28;20181;-63
2022/04/14 10:08:23;;;;;;;28.27;16.65;;;18.30;99.90;;;;;;5074754;28;20174;-63
2022/04/14 10:11:02;;;;;;;22.23;14.63;;;18.40;99.90;;;;;;5073024;28;20701;-63
2022/04/14 10:13:37;;;;;;;24.48;14.63;;;18.40;99.90;;;;;;5073251;28;20182;-62
2022/04/14 10:16:03;;;;;;;22.38;13.07;;;18.60;99.90;;;;;;5074877;28;20166;-63
2022/04/14 10:18:30;;;;;;;18.92;10.60;;;18.60;99.90;;;;;;5075105;28;20219;-64
2022/04/14 10:20:56;;;;;;;19.50;12.85;;;18.70;99.90;;;;;;5073271;28;20572;-63
2022/04/14 10:23:23;;;;;;;20.80;13.65;;;18.40;99.90;;;;;;5068530;28;20211;-63
2022/04/14 10:25:51;;;;;;;28.38;16.50;;;18.30;99.90;;;;;;5059187;28;20541;-63
2022/04/14 10:28:17;;;;;;;29.65;19.88;;;18.00;99.90;;;;;;5074049;28;20170;-62
2022/04/14 10:30:47;;;;;;;20.90;15.32;;;17.70;99.90;;;;;;5074318;28;20190;-63
2022/04/14 10:33:14;;;;;;;24.95;17.98;;;17.70;99.90;;;;;;5074254;28;20178;-63
2022/04/14 10:35:40;;;;;;;27.52;18.00;;;18.10;99.90;;;;;;5074214;28;20659;-63
2022/04/14 10:38:15;;;;;;;27.48;18.35;;;18.30;99.90;;;;;;5074639;28;20198;-63
2022/04/14 10:40:55;;;;;;;24.95;19.20;;;18.30;99.90;;;;;;5074675;28;20212;-63
2022/04/14 10:43:23;;;;;;;29.55;20.10;;;18.50;99.90;;;;;;5074366;28;20244;-63
2022/04/14 10:45:54;;;;;;;28.98;19.48;;;18.60;99.90;;;;;;5074254;28;20582;-63
2022/04/14 10:48:39;;;;;;;26.15;18.70;;;18.70;99.90;;;;;;5074159;28;20174;-63
2022/04/14 10:51:24;;;;;;;28.25;18.35;;;18.50;99.90;;;;;;5073895;28;20205;-63
2022/04/14 10:54:03;;;;;;;20.70;16.55;;;18.40;99.90;;;;;;5063964;28;20174;-63
2022/04/14 10:56:41;;;;;;;21.05;16.20;;;18.00;99.90;;;;;;5064417;28;20181;-63
2022/04/14 10:59:11;;;;;;;18.98;15.25;;;18.10;99.90;;;;;;5073899;28;20185;-63
2022/04/14 11:01:45;;;;;;;22.83;15.73;;;18.40;99.90;;;;;;5074918;28;20158;-64
2022/04/14 11:04:35;;;;;;;23.52;16.08;;;18.40;99.90;;;;;;5074028;28;20705;-63
2022/04/14 11:07:11;;;;;;;20.48;14.85;;;18.40;99.90;;;;;;5073781;28;20170;-63
2022/04/14 11:09:43;;;;;;;20.60;15.57;;;18.60;99.90;;;;;;5073722;28;20201;-64
2022/04/14 11:12:12;;;;;;;20.27;14.85;;;18.70;99.90;;;;;;5074346;28;20169;-64
2022/04/14 11:14:45;;;;;;;18.88;14.93;;;19.10;99.90;;;;;;5073502;28;20158;-63
2022/04/14 11:17:47;;;;;;;20.35;13.55;;;19.20;99.90;;;;;;5073605;28;20177;-63
2022/04/14 11:20:44;;;;;;;16.17;11.88;;;19.30;99.90;;;;;;5073774;28;20200;-64
2022/04/14 11:23:24;;;;;;;13.45;10.07;;;19.60;99.90;;;;;;5068460;28;20182;-64
2022/04/14 11:25:50;;;;;;;14.43;10.70;;;19.80;99.90;;;;;;5058506;28;20201;-64
2022/04/14 11:28:33;;;;;;;13.13;10.43;;;19.60;99.90;;;;;;5073859;28;20178;-62
2022/04/14 11:31:22;;;;;;;15.75;12.35;;;19.80;99.90;;;;;;5074530;28;20194;-64
2022/04/14 11:33:50;;;;;;;16.80;12.13;;;20.10;99.90;;;;;;5073573;28;20619;-63
2022/04/14 11:36:21;;;;;;;15.07;10.77;;;20.30;99.90;;;;;;5072821;28;20213;-64
2022/04/14 11:39:15;;;;;;;14.10;11.60;;;20.40;99.90;;;;;;5074456;28;20247;-62
2022/04/14 11:41:46;;;;;;;17.95;14.38;;;20.10;99.90;;;;;;5073530;28;20181;-63
2022/04/14 11:44:18;;;;;;;16.85;11.88;;;20.20;99.90;;;;;;5073534;28;20154;-63
2022/04/14 11:46:55;;;;;;;20.75;15.05;;;20.30;99.90;;;;;;5073848;28;20267;-62
2022/04/14 11:49:26;;;;;;;20.35;15.88;;;19.80;99.90;;;;;;5074070;28;20192;-62
2022/04/14 11:51:56;;;;;;;20.13;16.23;;;19.30;99.90;;;;;;5073535;28;20181;-62
2022/04/14 11:54:31;;;;;;;22.00;17.15;;;19.10;99.90;;;;;;5059243;28;20175;-62
2022/04/14 11:57:06;;;;;;;22.20;17.25;;;19.10;99.90;;;;;;5068767;28;20260;-62
2022/04/14 11:59:47;;;;;;;22.77;16.73;;;19.00;99.90;;;;;;5073088;28;20201;-62
2022/04/14 12:02:15;;;;;;;23.70;15.73;;;18.80;99.90;;;;;;5072177;28;20638;-62
2022/04/14 12:04:46;;;;;;;20.20;16.20;;;18.60;99.90;;;;;;5073423;28;20257;-62
2022/04/14 12:07:13;;;;;;;23.17;17.55;;;18.70;99.90;;;;;;5073189;28;20563;-63
2022/04/14 12:09:40;;;;;;;25.35;17.10;;;18.90;99.90;;;;;;5071843;28;20251;-63
2022/04/14 12:12:12;;;;;;;21.35;16.33;;;18.90;99.90;;;;;;5073002;28;20194;-63
2022/04/14 12:14:47;;;;;;;19.85;15.23;;;19.20;99.90;;;;;;5071535;28;20182;-63
2022/04/14 12:17:16;;;;;;;20.55;15.65;;;19.80;99.90;;;;;;5073485;28;20189;-63
2022/04/14 12:19:44;;;;;;;21.30;16.70;;;19.80;99.90;;;;;;5072981;28;20601;-62
2022/04/14 12:22:10;;;;;;;27.20;18.17;;;19.50;99.90;;;;;;5073046;28;20170;-62
2022/04/14 12:24:36;;;;;;;24.35;17.92;;;19.10;99.90;;;;;;5055295;28;20206;-63
2022/04/14 12:27:02;;;;;;;25.27;19.52;;;18.80;99.90;;;;;;5069186;28;20174;-63
2022/04/14 12:29:28;;;;;;;28.65;18.65;;;18.50;99.90;;;;;;5071500;28;20202;-64
2022/04/14 12:32:08;;;;;;;20.17;17.55;;;18.30;99.90;;;;;;5073566;28;20222;-62